Time;durP1;ratioP1;P1;durP2;ratioP2;P2;SDS_P1;SDS_P2;PMS_P1;PMS_P2;Temp;Humidity;BMP_temperature;BMP_pressure;BME280_temperature;BME280_humidity;BME280_pressure;Samples;Min_cycle;Max_cycle;Signal;HPM_P1;HPM_P2
2022/12/13 00:00:13;;;;;;;33.90;16.25;;;;;;;-5.06;78.67;99004.09;342596;28;1246;-78
2022/12/13 00:00:25;;;;;;;34.75;16.38;;;;;;;-5.08;78.77;99003.22;342485;28;1642;-78
2022/12/13 00:00:37;;;;;;;36.20;16.40;;;;;;;-5.14;79.11;99003.09;342416;28;1042;-78
2022/12/13 00:00:49;;;;;;;36.65;17.10;;;;;;;-5.07;79.55;99005.78;342158;28;1603;-77
2022/12/13 00:01:11;;;;;;;34.75;17.02;;;;;;;-5.00;79.85;99010.97;340576;29;1725;-78
2022/12/13 00:01:25;;;;;;;34.35;16.42;;;;;;;-4.98;79.57;99006.78;340926;29;1645;-78
2022/12/13 00:01:37;;;;;;;36.28;16.92;;;;;;;-4.99;79.48;99008.44;342017;28;1095;-78
2022/12/13 00:01:51;;;;;;;40.40;16.77;;;;;;;-5.00;79.26;99000.84;342466;28;1068;-78
2022/12/13 00:02:03;;;;;;;42.22;17.20;;;;;;;-5.04;79.74;99010.91;342023;28;1987;-78
2022/12/13 00:02:15;;;;;;;40.85;17.40;;;;;;;-5.05;79.40;99009.22;342480;28;1027;-78
2022/12/13 00:02:27;;;;;;;36.00;17.35;;;;;;;-5.04;79.29;99013.44;342555;28;1198;-78
2022/12/13 00:02:42;;;;;;;36.28;17.50;;;;;;;-5.01;79.35;99007.56;342265;28;1041;-78
2022/12/13 00:02:54;;;;;;;35.88;17.35;;;;;;;-4.99;79.41;99007.59;340007;29;2768;-78
2022/12/13 00:03:07;;;;;;;34.53;17.35;;;;;;;-5.00;79.57;99006.75;339251;29;1655;-78
2022/12/13 00:03:19;;;;;;;34.05;17.02;;;;;;;-4.97;79.43;99006.81;339809;29;1043;-78
2022/12/13 00:03:31;;;;;;;34.95;16.83;;;;;;;-5.00;79.41;99004.22;340949;29;1139;-78
2022/12/13 00:03:43;;;;;;;34.63;16.23;;;;;;;-5.01;79.06;99005.03;340358;29;1757;-78
2022/12/13 00:03:57;;;;;;;34.15;16.45;;;;;;;-5.03;79.66;99012.63;339546;29;1807;-78
2022/12/13 00:04:10;;;;;;;35.55;16.95;;;;;;;-5.00;79.18;99016.03;339885;29;2511;-78
2022/12/13 00:04:23;;;;;;;39.47;17.90;;;;;;;-4.97;79.30;99009.38;339516;29;2032;-78
2022/12/13 00:04:35;;;;;;;37.90;17.85;;;;;;;-4.95;79.39;99010.25;340127;29;1073;-78
2022/12/13 00:04:47;;;;;;;37.13;17.65;;;;;;;-4.93;79.43;99003.53;339422;29;1719;-78
2022/12/13 00:04:59;;;;;;;35.67;17.05;;;;;;;-4.93;79.21;99013.66;340544;29;1228;-78
2022/12/13 00:05:12;;;;;;;36.20;17.38;;;;;;;-4.93;78.83;99003.53;340475;29;1674;-78
2022/12/13 00:05:24;;;;;;;35.45;17.27;;;;;;;-4.93;79.11;99008.59;341121;29;1225;-78
2022/12/13 00:05:42;;;;;;;36.40;17.00;;;;;;;-4.93;78.93;99008.59;339642;29;1139;-78
2022/12/13 00:05:54;;;;;;;36.17;16.92;;;;;;;-5.00;79.42;99000.84;339946;29;1064;-78
2022/12/13 00:06:08;;;;;;;36.72;17.15;;;;;;;-4.97;79.66;99006.81;338519;29;1349;-78
2022/12/13 00:06:20;;;;;;;37.53;16.80;;;;;;;-4.95;79.49;99001.75;338591;29;1959;-78
2022/12/13 00:06:33;;;;;;;37.45;16.63;;;;;;;-4.91;79.62;99003.53;341131;29;1108;-78
2022/12/13 00:06:45;;;;;;;34.97;16.45;;;;;;;-4.93;79.82;99003.53;339906;29;1053;-78
2022/12/13 00:06:57;;;;;;;36.42;16.70;;;;;;;-4.95;79.99;99001.75;339780;29;1112;-78
2022/12/13 00:07:09;;;;;;;36.38;16.83;;;;;;;-4.92;79.94;99002.69;339981;29;1084;-78
2022/12/13 00:07:21;;;;;;;36.58;17.02;;;;;;;-4.91;80.12;99006.94;339023;29;1656;-78
2022/12/13 00:07:34;;;;;;;35.88;16.77;;;;;;;-4.90;80.06;99002.72;339787;29;1246;-78
2022/12/13 00:07:46;;;;;;;35.10;16.50;;;;;;;-4.95;80.27;99000.09;341432;29;1078;-78
2022/12/13 00:08:00;;;;;;;35.20;16.25;;;;;;;-4.93;80.46;99007.72;341112;29;1934;-78
2022/12/13 00:08:12;;;;;;;36.45;16.83;;;;;;;-4.90;80.65;99002.72;341996;28;1039;-78
2022/12/13 00:08:24;;;;;;;36.67;17.15;;;;;;;-4.87;80.20;99002.75;341499;28;1740;-78
2022/12/13 00:08:37;;;;;;;37.42;17.27;;;;;;;-4.82;80.57;99003.72;342759;28;737;-78
2022/12/13 00:08:49;;;;;;;39.53;17.98;;;;;;;-4.81;80.33;99000.34;342800;28;1024;-78
2022/12/13 00:09:02;;;;;;;40.80;18.58;;;;;;;-4.82;80.26;99002.03;342235;28;1220;-78
2022/12/13 00:09:17;;;;;;;39.05;18.33;;;;;;;-4.79;80.31;99010.50;342452;28;1015;-78
2022/12/13 00:09:29;;;;;;;38.22;17.83;;;;;;;-4.78;80.60;99005.47;342148;28;1850;-78
2022/12/13 00:09:42;;;;;;;37.55;17.52;;;;;;;-4.76;80.41;99001.28;342361;28;1057;-78
2022/12/13 00:09:54;;;;;;;35.22;17.10;;;;;;;-4.80;80.43;99003.75;340975;29;1068;-78
2022/12/13 00:10:06;;;;;;;34.05;16.75;;;;;;;-4.77;80.21;99003.78;339927;29;1272;-78
2022/12/13 00:10:18;;;;;;;34.92;16.98;;;;;;;-4.72;80.17;98999.66;340172;29;1671;-78
2022/12/13 00:10:30;;;;;;;36.47;17.35;;;;;;;-4.67;80.38;99005.66;340818;29;1037;-78
2022/12/13 00:10:42;;;;;;;36.10;17.58;;;;;;;-4.68;80.34;98993.81;338768;29;1636;-78
2022/12/13 00:11:02;;;;;;;35.13;17.27;;;;;;;-4.64;80.39;99000.66;339929;29;1055;-78
2022/12/13 00:11:14;;;;;;;36.08;17.17;;;;;;;-4.70;80.41;99003.94;340958;29;1044;-78
2022/12/13 00:11:27;;;;;;;36.38;17.27;;;;;;;-4.68;80.22;99009.88;339680;29;1105;-78
2022/12/13 00:11:39;;;;;;;36.38;17.60;;;;;;;-4.72;80.48;99004.75;339234;29;1628;-78
2022/12/13 00:11:52;;;;;;;37.53;17.65;;;;;;;-4.71;80.37;99003.91;338578;29;1061;-78
2022/12/13 00:12:04;;;;;;;39.00;17.55;;;;;;;-4.77;80.59;99003.78;340050;29;1170;-78
2022/12/13 00:12:16;;;;;;;37.75;17.48;;;;;;;-4.75;80.45;99002.13;338707;29;1671;-78
2022/12/13 00:12:28;;;;;;;35.72;17.65;;;;;;;-4.76;80.43;99000.44;339938;29;886;-78
2022/12/13 00:12:40;;;;;;;36.63;17.27;;;;;;;-4.75;80.57;99007.22;341076;29;1164;-78
2022/12/13 00:12:52;;;;;;;37.45;17.10;;;;;;;-4.77;80.34;98998.72;340620;29;1414;-78
2022/12/13 00:13:04;;;;;;;37.40;16.77;;;;;;;-4.76;80.50;99010.59;341264;29;2091;-78
2022/12/13 00:13:16;;;;;;;35.35;17.05;;;;;;;-4.70;80.08;99000.56;341046;29;1170;-78
2022/12/13 00:13:28;;;;;;;34.38;16.55;;;;;;;-4.80;80.63;98998.69;340994;28;1783;-78
2022/12/13 00:13:42;;;;;;;35.55;16.98;;;;;;;-4.77;80.37;98998.72;342827;28;1203;-78
2022/12/13 00:13:55;;;;;;;35.95;17.33;;;;;;;-4.76;80.24;99001.28;341845;28;1760;-78
2022/12/13 00:14:07;;;;;;;34.75;17.05;;;;;;;-4.76;80.33;98996.22;340813;29;1230;-78
2022/12/13 00:14:19;;;;;;;35.67;17.15;;;;;;;-4.74;80.69;99002.16;341231;28;1359;-78
2022/12/13 00:14:31;;;;;;;34.88;16.80;;;;;;;-4.68;80.25;99003.97;342624;28;795;-78
2022/12/13 00:14:43;;;;;;;34.95;16.65;;;;;;;-4.72;80.66;99003.06;342497;28;1190;-79
2022/12/13 00:14:55;;;;;;;33.72;16.45;;;;;;;-4.72;80.87;98997.97;341835;28;1761;-78
2022/12/13 00:15:08;;;;;;;34.95;16.58;;;;;;;-4.75;80.74;99004.66;342059;28;1204;-78
2022/12/13 00:15:20;;;;;;;36.95;17.52;;;;;;;-4.75;80.61;98997.06;341028;29;1228;-78
2022/12/13 00:15:32;;;;;;;37.38;18.10;;;;;;;-4.84;80.19;98998.59;340982;29;1084;-78
2022/12/13 00:15:54;;;;;;;35.78;17.70;;;;;;;-4.79;80.36;99000.38;340971;29;1197;-78
2022/12/13 00:16:11;;;;;;;35.65;17.17;;;;;;;-4.77;80.45;98999.56;340395;28;1642;-78
2022/12/13 00:16:24;;;;;;;36.63;17.25;;;;;;;-4.78;80.15;99002.09;342135;28;1508;-78
2022/12/13 00:16:37;;;;;;;37.40;17.75;;;;;;;-4.75;80.28;98997.91;342495;28;1212;-78
2022/12/13 00:16:49;;;;;;;36.88;17.95;;;;;;;-4.82;80.41;99004.56;342220;28;1906;-78
2022/12/13 00:17:01;;;;;;;34.40;17.35;;;;;;;-4.85;79.83;99001.97;342385;28;1444;-78
2022/12/13 00:17:13;;;;;;;33.58;16.98;;;;;;;-4.85;79.99;99001.09;342150;28;1218;-79
2022/12/13 00:17:25;;;;;;;35.45;17.10;;;;;;;-4.89;80.39;99000.22;343199;28;1690;-79
2022/12/13 00:17:37;;;;;;;36.05;17.17;;;;;;;-4.85;80.15;98996.91;343543;28;1157;-78
2022/12/13 00:17:49;;;;;;;35.35;17.67;;;;;;;-4.87;80.55;98995.16;343376;28;1031;-78
2022/12/13 00:18:01;;;;;;;35.25;18.00;;;;;;;-4.85;80.40;99001.97;343429;28;1540;-78
2022/12/13 00:18:13;;;;;;;36.72;18.00;;;;;;;-4.83;80.51;98995.25;341933;28;1558;-78
2022/12/13 00:18:25;;;;;;;36.95;17.55;;;;;;;-4.83;80.32;98995.25;342027;28;1377;-78
2022/12/13 00:18:37;;;;;;;36.88;17.35;;;;;;;-4.81;79.91;98997.81;340900;29;1227;-78
2022/12/13 00:18:54;;;;;;;35.03;17.33;;;;;;;-4.82;79.78;98996.09;341633;29;1031;-78
2022/12/13 00:19:06;;;;;;;36.33;17.85;;;;;;;-4.82;80.11;99002.03;339753;29;1180;-78
2022/12/13 00:19:19;;;;;;;37.53;17.75;;;;;;;-4.86;79.70;98994.34;340449;29;1752;-78
2022/12/13 00:19:31;;;;;;;38.50;17.55;;;;;;;-4.88;79.21;98993.47;340615;29;2063;-78
2022/12/13 00:19:43;;;;;;;38.42;17.33;;;;;;;-4.92;79.37;98995.06;339567;29;1122;-78
2022/12/13 00:19:55;;;;;;;36.72;17.42;;;;;;;-4.93;79.20;98997.56;340675;29;1005;-78
2022/12/13 00:20:07;;;;;;;35.75;17.70;;;;;;;-4.95;79.08;98989.97;341082;29;1084;-78
2022/12/13 00:20:19;;;;;;;36.58;17.23;;;;;;;-5.03;79.26;98988.94;338852;29;2243;-78
2022/12/13 00:20:31;;;;;;;38.08;16.65;;;;;;;-4.97;78.91;98993.28;339034;29;1861;-79
2022/12/13 00:20:43;;;;;;;38.92;16.77;;;;;;;-4.98;78.75;98994.13;339985;29;4400;-78
2022/12/13 00:20:55;;;;;;;36.53;16.65;;;;;;;-4.93;78.71;98997.56;340013;29;1540;-78
2022/12/13 00:21:11;;;;;;;35.30;16.75;;;;;;;-4.96;78.72;98998.38;339836;29;1059;-78
2022/12/13 00:21:31;;;;;;;37.42;17.02;;;;;;;-4.96;79.12;98995.00;340902;29;1456;-78
2022/12/13 00:21:43;;;;;;;36.70;16.75;;;;;;;-5.04;79.23;98989.78;340903;29;1039;-78
2022/12/13 00:21:55;;;;;;;38.03;16.67;;;;;;;-4.99;79.39;98989.84;340947;29;1627;-78
2022/12/13 00:22:07;;;;;;;37.58;17.10;;;;;;;-4.99;79.67;98998.31;339959;29;815;-78
2022/12/13 00:22:19;;;;;;;36.72;17.65;;;;;;;-4.96;79.19;98993.31;340087;29;1194;-78
2022/12/13 00:22:31;;;;;;;36.90;17.90;;;;;;;-4.94;79.13;98990.81;340519;28;1633;-78
2022/12/13 00:22:43;;;;;;;36.60;17.83;;;;;;;-4.96;78.80;98995.00;342799;28;876;-78
2022/12/13 00:22:56;;;;;;;34.80;17.23;;;;;;;-4.92;78.80;98987.47;342163;28;1016;-78
2022/12/13 00:23:08;;;;;;;34.63;17.17;;;;;;;-4.95;78.70;98989.97;342598;28;1103;-78
2022/12/13 00:23:20;;;;;;;34.75;17.15;;;;;;;-4.99;78.60;98989.84;342501;28;1772;-78
2022/12/13 00:23:32;;;;;;;34.92;17.13;;;;;;;-4.96;78.34;98990.78;341672;28;1665;-78
2022/12/13 00:23:47;;;;;;;35.67;17.10;;;;;;;-4.99;78.85;98998.31;342663;28;749;-78
2022/12/13 00:24:00;;;;;;;36.47;17.38;;;;;;;-5.04;78.72;98992.31;342493;28;1158;-78
2022/12/13 00:24:12;;;;;;;36.28;17.35;;;;;;;-5.14;78.60;98988.75;342041;28;1041;-78
2022/12/13 00:24:24;;;;;;;35.78;17.27;;;;;;;-5.10;78.72;98989.66;342950;28;1004;-78
2022/12/13 00:24:36;;;;;;;35.72;16.98;;;;;;;-5.07;78.52;98994.78;342630;28;1669;-78
2022/12/13 00:24:56;;;;;;;35.25;17.15;;;;;;;-5.04;78.16;98993.16;341129;29;1703;-78
2022/12/13 00:25:08;;;;;;;34.70;17.13;;;;;;;-5.05;78.20;98988.94;341042;29;1077;-78
2022/12/13 00:25:20;;;;;;;34.22;16.83;;;;;;;-5.03;78.58;98986.41;342169;28;1518;-78
2022/12/13 00:25:33;;;;;;;35.10;16.60;;;;;;;-5.01;78.24;98994.88;343314;28;1084;-78
2022/12/13 00:25:45;;;;;;;34.60;16.73;;;;;;;-4.96;78.40;98988.25;340816;28;1876;-78
2022/12/13 00:26:10;;;;;;;33.47;16.55;;;;;;;-4.96;77.92;98992.47;341578;29;1080;-78
2022/12/13 00:26:25;;;;;;;34.58;17.20;;;;;;;-4.97;78.29;98986.56;341893;28;1481;-78
2022/12/13 00:26:37;;;;;;;34.47;16.52;;;;;;;-5.02;77.81;98994.03;343893;28;1090;-78
2022/12/13 00:26:49;;;;;;;34.00;15.93;;;;;;;-5.09;77.69;98991.34;341608;28;1940;-78
2022/12/13 00:27:01;;;;;;;33.25;15.63;;;;;;;-5.10;77.47;98989.66;342269;28;1032;-78
2022/12/13 00:27:13;;;;;;;34.08;16.10;;;;;;;-5.10;77.56;98994.72;342413;28;1036;-78
2022/12/13 00:27:25;;;;;;;33.53;16.63;;;;;;;-5.09;77.81;98991.34;341270;29;1098;-78
2022/12/13 00:27:37;;;;;;;33.13;16.40;;;;;;;-5.08;77.66;98988.00;340868;29;1079;-78
2022/12/13 00:27:49;;;;;;;34.67;16.48;;;;;;;-5.11;77.43;98991.34;339598;29;1457;-78
2022/12/13 00:28:01;;;;;;;36.63;17.08;;;;;;;-5.13;77.63;98990.47;339971;29;1844;-78
2022/12/13 00:28:16;;;;;;;36.80;17.25;;;;;;;-5.12;77.61;98983.72;338732;29;1211;-78
2022/12/13 00:28:27;;;;;;;35.15;16.85;;;;;;;-5.16;77.52;98984.47;339918;29;1093;-78
2022/12/13 00:28:40;;;;;;;33.92;16.40;;;;;;;-5.19;77.42;98990.34;339968;29;1111;-77
2022/12/13 00:28:53;;;;;;;33.85;16.38;;;;;;;-5.18;77.67;98991.19;340983;29;1215;-78
2022/12/13 00:29:06;;;;;;;34.80;16.45;;;;;;;-5.25;77.28;98991.06;341849;28;1621;-78
2022/12/13 00:29:19;;;;;;;35.50;16.73;;;;;;;-5.37;77.15;98980.69;342338;28;1571;-78
2022/12/13 00:29:31;;;;;;;34.88;16.63;;;;;;;-5.38;77.37;98988.25;342284;28;1059;-78
2022/12/13 00:29:43;;;;;;;35.13;16.58;;;;;;;-5.32;77.59;98986.69;341496;28;1204;-78
2022/12/13 00:29:55;;;;;;;34.35;16.42;;;;;;;-5.31;78.07;98996.03;341870;28;1213;-78
2022/12/13 00:30:07;;;;;;;34.58;16.33;;;;;;;-5.30;78.11;98982.50;341515;28;1900;-78
2022/12/13 00:30:19;;;;;;;35.92;16.85;;;;;;;-5.28;78.28;98985.09;340627;29;1019;-78
2022/12/13 00:30:31;;;;;;;35.10;17.05;;;;;;;-5.24;78.61;98985.16;338688;29;1102;-78
2022/12/13 00:30:44;;;;;;;35.25;16.88;;;;;;;-5.22;78.70;98991.13;338597;29;1032;-78
2022/12/13 00:30:59;;;;;;;35.85;16.33;;;;;;;-5.14;78.46;98985.38;338621;29;1018;-78
2022/12/13 00:31:32;;;;;;;31.73;15.55;;;;;;;-5.05;78.88;98986.41;338358;29;1375;-78
2022/12/13 00:32:03;;;;;;;36.72;17.00;;;;;;;-4.94;78.75;98990.81;338190;29;1113;-78
2022/12/13 00:32:16;;;;;;;35.17;16.42;;;;;;;-4.92;78.82;98989.16;338982;29;1615;-78
2022/12/13 00:32:28;;;;;;;34.08;16.33;;;;;;;-4.91;78.46;98986.66;341218;28;1100;-78
2022/12/13 00:32:40;;;;;;;34.13;16.77;;;;;;;-4.90;78.49;98988.34;342281;28;1048;-78
2022/12/13 00:32:52;;;;;;;36.28;17.33;;;;;;;-4.87;78.89;98983.34;342545;28;1142;-78
2022/12/13 00:33:07;;;;;;;37.97;17.08;;;;;;;-4.86;78.65;98990.13;342933;28;1079;-79
2022/12/13 00:33:19;;;;;;;38.03;17.20;;;;;;;-4.85;78.45;98986.78;341266;28;1688;-78
2022/12/13 00:33:31;;;;;;;35.97;17.17;;;;;;;-4.85;78.70;98986.78;341606;28;1077;-79
2022/12/13 00:33:43;;;;;;;34.70;16.92;;;;;;;-4.84;78.58;98988.47;341415;28;1058;-79
2022/12/13 00:33:55;;;;;;;34.92;16.98;;;;;;;-4.85;78.93;98986.78;341567;28;2201;-78
2022/12/13 00:34:07;;;;;;;35.80;16.75;;;;;;;-4.84;78.65;98982.56;341274;28;1918;-78
2022/12/13 00:34:20;;;;;;;36.15;17.00;;;;;;;-4.81;78.61;98982.59;341416;28;1729;-78
2022/12/13 00:34:32;;;;;;;36.97;17.38;;;;;;;-4.80;78.74;98988.53;341252;28;1060;-78
2022/12/13 00:34:44;;;;;;;36.55;17.13;;;;;;;-4.77;78.30;98983.50;340767;28;1199;-78
2022/12/13 00:34:56;;;;;;;34.88;16.88;;;;;;;-4.79;78.56;98980.94;341165;28;1076;-78
2022/12/13 00:35:08;;;;;;;33.40;16.92;;;;;;;-4.95;78.78;98979.84;341132;28;1040;-78
2022/12/13 00:35:20;;;;;;;34.58;17.27;;;;;;;-4.92;79.15;98984.94;341947;28;1524;-78
2022/12/13 00:35:33;;;;;;;36.55;17.48;;;;;;;-4.90;78.93;98985.81;341503;28;1067;-78
2022/12/13 00:35:45;;;;;;;37.08;17.25;;;;;;;-4.90;79.17;98984.97;341283;28;1051;-78
2022/12/13 00:35:57;;;;;;;34.15;16.35;;;;;;;-4.88;79.47;98979.09;341235;28;1031;-78
2022/12/13 00:36:09;;;;;;;34.38;15.82;;;;;;;-4.86;79.31;98982.50;341536;28;1252;-79
2022/12/13 00:36:21;;;;;;;34.42;16.45;;;;;;;-4.85;79.29;98986.78;342109;28;1196;-78
2022/12/13 00:36:33;;;;;;;35.10;16.98;;;;;;;-4.83;79.33;98985.13;341928;28;1631;-78
2022/12/13 00:36:45;;;;;;;35.50;17.52;;;;;;;-4.84;79.52;98983.41;340984;29;1051;-78
2022/12/13 00:36:57;;;;;;;34.30;17.42;;;;;;;-4.91;79.21;98984.13;340119;29;2831;-78
2022/12/13 00:37:10;;;;;;;33.97;16.88;;;;;;;-5.02;79.15;98983.06;340978;29;1080;-78
2022/12/13 00:37:22;;;;;;;35.33;16.77;;;;;;;-5.06;79.81;98982.13;340938;29;1651;-78
2022/12/13 00:37:34;;;;;;;37.53;16.48;;;;;;;-5.08;79.60;98985.47;340477;29;1634;-78
2022/12/13 00:37:46;;;;;;;38.72;16.75;;;;;;;-5.02;79.52;98981.38;340731;29;1839;-78
2022/12/13 00:37:58;;;;;;;38.90;17.60;;;;;;;-4.99;79.87;98982.25;341243;29;1053;-78
2022/12/13 00:38:10;;;;;;;38.53;17.55;;;;;;;-5.07;79.82;98980.44;340058;29;2024;-78
2022/12/13 00:38:23;;;;;;;35.35;17.15;;;;;;;-5.19;79.97;98981.88;340251;29;1481;-78
2022/12/13 00:38:35;;;;;;;34.97;17.55;;;;;;;-5.29;80.12;98984.25;341218;29;1906;-78
2022/12/13 00:38:59;;;;;;;35.53;17.42;;;;;;;-5.32;80.27;98984.16;340822;29;1910;-78
2022/12/13 00:39:12;;;;;;;35.53;17.00;;;;;;;-5.42;80.38;98980.59;342561;28;855;-78
2022/12/13 00:39:24;;;;;;;36.03;17.02;;;;;;;-5.47;80.19;98983.88;343415;28;1222;-78
2022/12/13 00:39:37;;;;;;;36.30;16.88;;;;;;;-5.45;80.38;98984.75;342691;28;1184;-78
2022/12/13 00:39:50;;;;;;;35.95;17.10;;;;;;;-5.37;80.28;98984.88;342245;28;1886;-78
2022/12/13 00:40:03;;;;;;;33.63;16.83;;;;;;;-5.30;80.46;98981.66;342409;28;1210;-78
2022/12/13 00:40:15;;;;;;;34.92;16.67;;;;;;;-5.30;80.24;98981.66;342217;28;1557;-78
2022/12/13 00:40:27;;;;;;;34.30;16.45;;;;;;;-5.24;80.05;98984.31;342635;28;1058;-78
2022/12/13 00:40:39;;;;;;;34.67;16.52;;;;;;;-5.22;79.97;98980.13;342529;28;1028;-78
2022/12/13 00:40:51;;;;;;;34.42;16.50;;;;;;;-5.20;79.62;98982.72;342397;28;1673;-78
2022/12/13 00:41:10;;;;;;;33.97;16.63;;;;;;;-5.23;78.83;98979.28;342652;28;1052;-78
2022/12/13 00:41:22;;;;;;;35.63;16.85;;;;;;;-5.31;78.92;98977.41;342683;28;1249;-78
2022/12/13 00:41:35;;;;;;;35.95;16.73;;;;;;;-5.38;78.48;98983.19;342355;28;1202;-78
2022/12/13 00:41:47;;;;;;;34.58;16.30;;;;;;;-5.38;78.24;98978.97;342532;28;1300;-78
2022/12/13 00:41:58;;;;;;;33.13;16.27;;;;;;;-5.38;78.30;98978.97;341735;28;1811;-78
2022/12/13 00:42:11;;;;;;;33.20;16.67;;;;;;;-5.45;78.28;98982.22;340919;29;1040;-78
2022/12/13 00:42:23;;;;;;;35.38;16.23;;;;;;;-5.51;78.13;98982.09;341114;29;1270;-78
2022/12/13 00:42:35;;;;;;;35.13;15.95;;;;;;;-5.51;78.32;98977.88;341300;29;1140;-78
2022/12/13 00:42:47;;;;;;;34.05;15.65;;;;;;;-5.50;78.47;98978.72;341333;29;1062;-78
2022/12/13 00:42:59;;;;;;;35.03;16.25;;;;;;;-5.53;78.18;98978.66;340939;28;1767;-78
2022/12/13 00:43:12;;;;;;;34.53;16.48;;;;;;;-5.49;78.07;98980.47;341342;28;1570;-78
2022/12/13 00:43:24;;;;;;;33.83;16.67;;;;;;;-5.48;77.92;98985.53;341554;28;1479;-78
2022/12/13 00:43:36;;;;;;;33.75;16.30;;;;;;;-5.53;77.92;98982.06;340861;28;1813;-78
2022/12/13 00:43:48;;;;;;;34.10;16.55;;;;;;;-5.58;77.85;98988.69;340660;29;1792;-78
2022/12/13 00:44:01;;;;;;;34.65;16.55;;;;;;;-5.63;77.94;98988.59;341295;28;1999;-78
2022/12/13 00:44:14;;;;;;;34.78;16.55;;;;;;;-5.62;77.76;98985.22;342363;28;1729;-78
2022/12/13 00:44:26;;;;;;;35.42;16.48;;;;;;;-5.59;77.64;98983.59;343048;28;1180;-78
2022/12/13 00:44:38;;;;;;;34.58;16.50;;;;;;;-5.57;77.89;98987.00;342582;28;1184;-78
2022/12/13 00:44:49;;;;;;;33.72;16.77;;;;;;;-5.52;77.82;98983.75;342325;28;1032;-78
2022/12/13 00:45:02;;;;;;;32.72;16.50;;;;;;;-5.53;77.84;98987.13;342386;28;1238;-78
2022/12/13 00:45:15;;;;;;;32.30;16.13;;;;;;;-5.56;77.78;98983.66;341546;28;1653;-78
2022/12/13 00:45:27;;;;;;;32.72;16.27;;;;;;;-5.52;78.21;98985.44;341612;28;1689;-78
2022/12/13 00:45:39;;;;;;;33.78;16.55;;;;;;;-5.53;77.77;98983.72;341867;28;1562;-78
2022/12/13 00:45:52;;;;;;;36.23;17.53;;;;;;;-5.49;77.92;98980.47;342937;28;1185;-78
2022/12/13 00:46:04;;;;;;;34.65;17.17;;;;;;;-5.46;77.48;98983.03;342819;28;1035;-78
2022/12/13 00:46:18;;;;;;;34.35;16.48;;;;;;;-5.43;77.92;98981.41;341599;28;1827;-78
2022/12/13 00:46:31;;;;;;;37.28;16.55;;;;;;;-5.42;77.81;98978.06;342420;28;1842;-78
2022/12/13 00:46:43;;;;;;;38.55;16.80;;;;;;;-5.43;77.36;98983.13;341525;29;1019;-78
2022/12/13 00:46:55;;;;;;;36.50;16.33;;;;;;;-5.42;77.66;98977.22;341194;28;1003;-78
2022/12/13 00:47:07;;;;;;;38.08;16.80;;;;;;;-5.40;77.87;98980.63;342723;28;1012;-78
2022/12/13 00:47:21;;;;;;;36.08;16.60;;;;;;;-5.40;78.21;98980.63;342465;28;1687;-77
2022/12/13 00:47:33;;;;;;;34.25;16.55;;;;;;;-5.37;77.88;98985.78;342515;28;1068;-78
2022/12/13 00:47:45;;;;;;;34.75;16.63;;;;;;;-5.37;78.29;98980.69;342695;28;1229;-78
2022/12/13 00:47:57;;;;;;;35.60;16.73;;;;;;;-5.34;78.06;98983.28;342458;28;1112;-78
2022/12/13 00:48:09;;;;;;;35.50;16.70;;;;;;;-5.37;78.37;98980.69;341842;28;1689;-78
2022/12/13 00:48:22;;;;;;;37.45;17.05;;;;;;;-5.36;78.17;98979.88;342190;28;1743;-78
2022/12/13 00:48:34;;;;;;;39.15;17.67;;;;;;;-5.37;78.17;98980.69;341353;28;1448;-78
2022/12/13 00:48:51;;;;;;;39.50;17.42;;;;;;;-5.33;77.95;98981.59;341257;28;1204;-78
2022/12/13 00:49:04;;;;;;;35.50;16.95;;;;;;;-5.33;78.02;98982.47;342182;28;1877;-78
2022/12/13 00:49:16;;;;;;;34.77;17.27;;;;;;;-5.40;77.62;98975.56;341284;29;1073;-78
2022/12/13 00:49:28;;;;;;;35.83;17.40;;;;;;;-5.39;77.93;98979.81;340943;29;1763;-78
2022/12/13 00:49:40;;;;;;;37.33;17.17;;;;;;;-5.39;77.83;98972.22;340147;29;1143;-78
2022/12/13 00:49:52;;;;;;;38.70;17.20;;;;;;;-5.37;77.63;98979.81;339802;29;1623;-78
2022/12/13 00:50:05;;;;;;;39.50;17.70;;;;;;;-5.38;78.07;98978.13;341400;28;1039;-78
2022/12/13 00:50:17;;;;;;;41.00;18.30;;;;;;;-5.37;78.31;98974.75;341352;28;1463;-78
2022/12/13 00:50:29;;;;;;;38.67;17.58;;;;;;;-5.40;78.08;98980.63;342579;28;1272;-78
2022/12/13 00:50:41;;;;;;;35.83;16.10;;;;;;;-5.37;77.57;98978.16;341720;28;1396;-78
2022/12/13 00:50:53;;;;;;;35.17;16.02;;;;;;;-5.46;77.28;98980.50;342798;28;1749;-78
2022/12/13 00:51:10;;;;;;;37.05;16.55;;;;;;;-5.42;77.53;98980.59;341189;28;1580;-78
2022/12/13 00:51:23;;;;;;;37.10;16.88;;;;;;;-5.47;77.19;98979.66;342621;28;1303;-78
2022/12/13 00:51:35;;;;;;;37.28;16.77;;;;;;;-5.42;77.20;98979.75;341417;28;1628;-78
2022/12/13 00:51:48;;;;;;;36.88;16.90;;;;;;;-5.39;77.20;98976.41;340926;29;1481;-78
2022/12/13 00:52:00;;;;;;;36.95;16.73;;;;;;;-5.37;76.92;98979.81;341104;29;1237;-78
2022/12/13 00:52:12;;;;;;;36.75;16.30;;;;;;;-5.36;77.26;98982.41;341578;29;968;-78
2022/12/13 00:52:24;;;;;;;34.40;16.58;;;;;;;-5.36;77.49;98982.41;341599;29;1886;-78
2022/12/13 00:52:36;;;;;;;36.75;17.20;;;;;;;-5.36;77.42;98979.88;341206;29;1060;-78
2022/12/13 00:52:48;;;;;;;37.75;17.00;;;;;;;-5.36;77.46;98984.94;340721;29;1579;-78
2022/12/13 00:53:00;;;;;;;34.92;16.13;;;;;;;-5.32;77.59;98975.72;341194;29;1232;-78
2022/12/13 00:53:12;;;;;;;34.88;16.13;;;;;;;-5.30;77.19;98979.97;341160;29;1188;-78
2022/12/13 00:53:24;;;;;;;35.00;16.75;;;;;;;-5.29;77.56;98976.63;339006;29;1268;-78
2022/12/13 00:53:37;;;;;;;34.58;16.83;;;;;;;-5.26;77.09;98979.22;338858;29;1064;-78
2022/12/13 00:53:50;;;;;;;34.03;16.73;;;;;;;-5.25;77.17;98975.88;340664;28;4125;-78
2022/12/13 00:54:02;;;;;;;33.47;16.13;;;;;;;-5.19;77.25;98981.88;341268;29;1085;-78
2022/12/13 00:54:14;;;;;;;34.30;16.00;;;;;;;-5.24;77.21;98979.25;341301;28;1877;-78
2022/12/13 00:54:26;;;;;;;33.55;15.55;;;;;;;-5.28;76.65;98978.34;342161;28;1064;-78
2022/12/13 00:54:38;;;;;;;34.08;16.15;;;;;;;-5.28;76.64;98983.41;340997;29;1054;-78
2022/12/13 00:54:50;;;;;;;36.72;16.63;;;;;;;-5.28;77.25;98974.94;341434;29;952;-78
2022/12/13 00:55:02;;;;;;;35.65;16.63;;;;;;;-5.29;76.70;98976.63;341355;29;1074;-78
2022/12/13 00:55:14;;;;;;;37.03;16.38;;;;;;;-5.30;76.45;98977.44;341603;29;1090;-78
2022/12/13 00:55:27;;;;;;;38.35;16.33;;;;;;;-5.25;76.83;98980.94;340118;29;1192;-78
2022/12/13 00:55:40;;;;;;;37.00;16.83;;;;;;;-5.30;77.09;98974.06;339981;29;1159;-78
2022/12/13 00:55:52;;;;;;;36.78;16.60;;;;;;;-5.43;77.88;98980.56;340644;29;1084;-78
2022/12/13 00:56:10;;;;;;;36.55;16.67;;;;;;;-5.37;78.33;98979.81;341181;29;1178;-78
2022/12/13 00:56:25;;;;;;;36.55;16.98;;;;;;;-5.35;78.20;98984.13;341060;28;1638;-78
2022/12/13 00:56:37;;;;;;;35.83;16.63;;;;;;;-5.31;78.40;98973.22;341475;28;1172;-78
2022/12/13 00:56:50;;;;;;;35.60;16.60;;;;;;;-5.26;78.44;98973.31;341224;29;1083;-78
2022/12/13 00:57:02;;;;;;;32.90;15.88;;;;;;;-5.22;78.10;98981.00;341040;29;1036;-78
2022/12/13 00:57:14;;;;;;;32.72;16.08;;;;;;;-5.21;78.33;98979.34;341198;29;1059;-78
2022/12/13 00:57:26;;;;;;;34.85;17.23;;;;;;;-5.23;78.24;98978.44;341467;29;1202;-78
2022/12/13 00:57:38;;;;;;;35.15;17.05;;;;;;;-5.19;78.26;98975.16;341296;29;1059;-78
2022/12/13 00:57:50;;;;;;;35.45;16.40;;;;;;;-5.13;78.29;98982.00;341579;29;758;-78
2022/12/13 00:58:02;;;;;;;37.20;16.55;;;;;;;-5.18;78.59;98976.00;339766;29;1141;-78
2022/12/13 00:58:14;;;;;;;38.35;17.10;;;;;;;-5.13;78.32;98985.41;338103;29;1578;-78
2022/12/13 00:58:26;;;;;;;37.95;16.80;;;;;;;-5.16;78.58;98980.25;337514;29;2170;-78
2022/12/13 00:58:39;;;;;;;35.67;16.17;;;;;;;-5.13;78.85;98974.38;339210;29;1216;-78
2022/12/13 00:58:51;;;;;;;36.03;16.27;;;;;;;-5.14;78.75;98975.22;339521;29;1109;-78
2022/12/13 00:59:03;;;;;;;36.83;16.70;;;;;;;-5.09;78.46;98981.22;339521;29;1692;-78
2022/12/13 00:59:16;;;;;;;38.58;17.17;;;;;;;-5.10;78.72;98979.53;339931;29;1050;-78
2022/12/13 00:59:28;;;;;;;37.47;16.98;;;;;;;-5.08;78.65;98973.66;338563;29;2037;-78
2022/12/13 00:59:40;;;;;;;35.45;16.77;;;;;;;-5.04;78.63;98972.88;339726;29;1662;-78
2022/12/13 00:59:52;;;;;;;33.97;16.98;;;;;;;-5.02;78.69;98973.78;338343;29;1057;-78
2022/12/13 01:00:04;;;;;;;37.03;17.83;;;;;;;-5.04;78.86;98974.56;337911;29;2180;-78
2022/12/13 01:00:17;;;;;;;37.15;17.42;;;;;;;-5.08;78.48;98975.34;340121;29;1417;-78
2022/12/13 01:00:29;;;;;;;36.28;17.48;;;;;;;-5.08;78.97;98970.28;339841;29;1989;-78
2022/12/13 01:00:41;;;;;;;36.53;17.85;;;;;;;-5.11;79.14;98972.72;340359;29;1068;-78